sensor_id;sensor_type;location;lat;lon;timestamp;pressure;altitude;pressure_sealevel;temperature;humidity
41513;BME280;27244;59.940;30.280;2022-08-19T00:01:27;102005.69;;;26.25;52.79
41513;BME280;27244;59.940;30.280;2022-08-19T00:03:54;102005.69;;;26.25;52.35
41513;BME280;27244;59.940;30.280;2022-08-19T00:06:21;102000.03;;;26.25;52.69
41513;BME280;27244;59.940;30.280;2022-08-19T00:08:48;101993.22;;;26.22;52.47
41513;BME280;27244;59.940;30.280;2022-08-19T00:11:18;101998.81;;;26.26;52.66
41513;BME280;27244;59.940;30.280;2022-08-19T00:13:46;101992.41;;;26.22;52.30
41513;BME280;27244;59.940;30.280;2022-08-19T00:16:14;101993.97;;;26.23;52.21
41513;BME280;27244;59.940;30.280;2022-08-19T00:18:43;101995.97;;;26.26;52.43
41513;BME280;27244;59.940;30.280;2022-08-19T00:21:10;101991.16;;;26.23;51.91
41513;BME280;27244;59.940;30.280;2022-08-19T00:23:37;101995.25;;;26.22;51.96
41513;BME280;27244;59.940;30.280;2022-08-19T00:26:05;101993.97;;;26.23;51.92
41513;BME280;27244;59.940;30.280;2022-08-19T00:28:34;101994.38;;;26.25;52.18
41513;BME280;27244;59.940;30.280;2022-08-19T00:31:01;101984.72;;;26.22;52.09
41513;BME280;27244;59.940;30.280;2022-08-19T00:33:32;101999.22;;;26.24;51.85
41513;BME280;27244;59.940;30.280;2022-08-19T00:36:00;102002.91;;;26.21;51.76
41513;BME280;27244;59.940;30.280;2022-08-19T00:38:27;101996.47;;;26.21;51.67
41513;BME280;27244;59.940;30.280;2022-08-19T00:40:55;102002.53;;;26.19;51.77
41513;BME280;27244;59.940;30.280;2022-08-19T00:43:24;101999.66;;;26.23;51.63
41513;BME280;27244;59.940;30.280;2022-08-19T00:45:53;101998.88;;;26.22;51.40
41513;BME280;27244;59.940;30.280;2022-08-19T00:48:21;101997.25;;;26.21;51.61
41513;BME280;27244;59.940;30.280;2022-08-19T00:50:52;101987.22;;;26.17;51.86
41513;BME280;27244;59.940;30.280;2022-08-19T00:53:23;101996.03;;;26.22;51.70
41513;BME280;27244;59.940;30.280;2022-08-19T00:55:54;101990.75;;;26.24;51.23
41513;BME280;27244;59.940;30.280;2022-08-19T00:58:27;101999.56;;;26.26;51.56
41513;BME280;27244;59.940;30.280;2022-08-19T01:00:57;101994.44;;;26.21;51.79
41513;BME280;27244;59.940;30.280;2022-08-19T01:03:24;101990.44;;;26.19;51.31
41513;BME280;27244;59.940;30.280;2022-08-19T01:05:52;101990.00;;;26.20;50.98
41513;BME280;27244;59.940;30.280;2022-08-19T01:08:21;101993.28;;;26.19;50.92
41513;BME280;27244;59.940;30.280;2022-08-19T01:10:50;101996.09;;;26.19;51.06
41513;BME280;27244;59.940;30.280;2022-08-19T01:13:20;101994.06;;;26.19;51.26
41513;BME280;27244;59.940;30.280;2022-08-19T01:15:52;101996.88;;;26.19;51.10
41513;BME280;27244;59.940;30.280;2022-08-19T01:18:23;101995.25;;;26.22;51.10
41513;BME280;27244;59.940;30.280;2022-08-19T01:20:52;101998.94;;;26.19;50.93
41513;BME280;27244;59.940;30.280;2022-08-19T01:23:22;102004.16;;;26.20;50.74
41513;BME280;27244;59.940;30.280;2022-08-19T01:26:09;102012.66;;;26.17;50.69
41513;BME280;27244;59.940;30.280;2022-08-19T01:28:37;102006.63;;;26.18;50.92
41513;BME280;27244;59.940;30.280;2022-08-19T01:31:05;102006.66;;;26.15;50.78
41513;BME280;27244;59.940;30.280;2022-08-19T01:33:33;102013.47;;;26.17;50.80
41513;BME280;27244;59.940;30.280;2022-08-19T01:36:05;102015.84;;;26.22;50.60
41513;BME280;27244;59.940;30.280;2022-08-19T01:38:35;102014.66;;;26.20;50.91
41513;BME280;27244;59.940;30.280;2022-08-19T01:41:03;102019.53;;;26.16;50.75
41513;BME280;27244;59.940;30.280;2022-08-19T01:43:30;102019.53;;;26.16;50.76
41513;BME280;27244;59.940;30.280;2022-08-19T01:45:57;102021.16;;;26.17;50.66
41513;BME280;27244;59.940;30.280;2022-08-19T01:48:24;102028.81;;;26.16;50.35
41513;BME280;27244;59.940;30.280;2022-08-19T01:50:51;102023.97;;;26.17;50.76
41513;BME280;27244;59.940;30.280;2022-08-19T01:53:18;102041.41;;;26.15;50.88
41513;BME280;27244;59.940;30.280;2022-08-19T01:55:46;102031.66;;;26.16;51.07
41513;BME280;27244;59.940;30.280;2022-08-19T01:58:16;102030.84;;;26.16;50.82
41513;BME280;27244;59.940;30.280;2022-08-19T02:00:47;102032.47;;;26.17;50.55
41513;BME280;27244;59.940;30.280;2022-08-19T02:03:14;102039.78;;;26.14;50.27
41513;BME280;27244;59.940;30.280;2022-08-19T02:05:42;102043.03;;;26.13;50.51
41513;BME280;27244;59.940;30.280;2022-08-19T02:08:10;102043.84;;;26.13;50.07
41513;BME280;27244;59.940;30.280;2022-08-19T02:10:39;102043.84;;;26.13;50.51
41513;BME280;27244;59.940;30.280;2022-08-19T02:13:08;102044.63;;;26.14;50.46
41513;BME280;27244;59.940;30.280;2022-08-19T02:15:35;102040.66;;;26.11;50.44
41513;BME280;27244;59.940;30.280;2022-08-19T02:18:03;102035.41;;;26.10;50.48
41513;BME280;27244;59.940;30.280;2022-08-19T02:20:30;102040.22;;;26.13;50.57
41513;BME280;27244;59.940;30.280;2022-08-19T02:22:57;102035.81;;;26.12;50.32
41513;BME280;27244;59.940;30.280;2022-08-19T02:25:27;102047.13;;;26.12;50.67
41513;BME280;27244;59.940;30.280;2022-08-19T02:27:54;102045.88;;;26.13;50.25
41513;BME280;27244;59.940;30.280;2022-08-19T02:30:22;102036.63;;;26.09;49.90
41513;BME280;27244;59.940;30.280;2022-08-19T02:32:50;102046.66;;;26.13;50.64
41513;BME280;27244;59.940;30.280;2022-08-19T02:35:17;102047.88;;;26.12;50.33
41513;BME280;27244;59.940;30.280;2022-08-19T02:37:45;102051.53;;;26.13;50.56
41513;BME280;27244;59.940;30.280;2022-08-19T02:40:30;102053.13;;;26.14;50.12
41513;BME280;27244;59.940;30.280;2022-08-19T02:42:59;102047.88;;;26.12;50.14
41513;BME280;27244;59.940;30.280;2022-08-19T02:45:31;102049.44;;;26.17;50.17
41513;BME280;27244;59.940;30.280;2022-08-19T02:47:58;102052.38;;;26.10;50.22
41513;BME280;27244;59.940;30.280;2022-08-19T02:50:25;102059.66;;;26.11;50.48
41513;BME280;27244;59.940;30.280;2022-08-19T02:52:52;102061.59;;;26.14;50.44
41513;BME280;27244;59.940;30.280;2022-08-19T02:55:20;102060.81;;;26.13;50.31
41513;BME280;27244;59.940;30.280;2022-08-19T02:57:47;102060.81;;;26.13;49.99
41513;BME280;27244;59.940;30.280;2022-08-19T03:00:15;102068.13;;;26.11;50.38
41513;BME280;27244;59.940;30.280;2022-08-19T03:02:43;102064.09;;;26.12;50.31
41513;BME280;27244;59.940;30.280;2022-08-19T03:05:12;102068.13;;;26.11;50.31
41513;BME280;27244;59.940;30.280;2022-08-19T03:07:39;102072.19;;;26.10;50.42
41513;BME280;27244;59.940;30.280;2022-08-19T03:10:07;102069.00;;;26.08;50.35
41513;BME280;27244;59.940;30.280;2022-08-19T03:12:36;102066.16;;;26.08;50.15
41513;BME280;27244;59.940;30.280;2022-08-19T03:15:04;102074.66;;;26.08;50.40
41513;BME280;27244;59.940;30.280;2022-08-19T03:17:31;102061.72;;;26.07;50.08
41513;BME280;27244;59.940;30.280;2022-08-19T03:20:00;102064.13;;;26.08;50.22
41513;BME280;27244;59.940;30.280;2022-08-19T03:22:27;102071.03;;;26.07;50.43
41513;BME280;27244;59.940;30.280;2022-08-19T03:24:55;102073.03;;;26.07;50.47
41513;BME280;27244;59.940;30.280;2022-08-19T03:27:22;102065.78;;;26.06;50.12
41513;BME280;27244;59.940;30.280;2022-08-19T03:29:49;102075.88;;;26.07;50.36
41513;BME280;27244;59.940;30.280;2022-08-19T03:32:17;102071.44;;;26.06;50.40
41513;BME280;27244;59.940;30.280;2022-08-19T03:34:44;102073.03;;;26.07;50.35
41513;BME280;27244;59.940;30.280;2022-08-19T03:37:12;102069.00;;;26.08;50.48
41513;BME280;27244;59.940;30.280;2022-08-19T03:39:41;102073.03;;;26.07;50.24
41513;BME280;27244;59.940;30.280;2022-08-19T03:42:09;102079.50;;;26.07;50.62
41513;BME280;27244;59.940;30.280;2022-08-19T03:44:36;102081.53;;;26.07;50.22
41513;BME280;27244;59.940;30.280;2022-08-19T03:47:04;102083.56;;;26.06;50.47
41513;BME280;27244;59.940;30.280;2022-08-19T03:49:32;102086.38;;;26.06;50.72
41513;BME280;27244;59.940;30.280;2022-08-19T03:52:01;102089.22;;;26.06;50.54
41513;BME280;27244;59.940;30.280;2022-08-19T03:54:31;102088.78;;;26.08;50.10
41513;BME280;27244;59.940;30.280;2022-08-19T03:56:59;102090.81;;;26.07;50.17
41513;BME280;27244;59.940;30.280;2022-08-19T03:59:28;102087.53;;;26.09;50.10
41513;BME280;27244;59.940;30.280;2022-08-19T04:01:56;102098.84;;;26.09;50.46
41513;BME280;27244;59.940;30.280;2022-08-19T04:04:24;102097.28;;;26.08;50.58
41513;BME280;27244;59.940;30.280;2022-08-19T04:06:52;102100.88;;;26.08;50.32
41513;BME280;27244;59.940;30.280;2022-08-19T04:09:19;102104.50;;;26.09;50.15
41513;BME280;27244;59.940;30.280;2022-08-19T04:11:49;102099.66;;;26.09;50.13
41513;BME280;27244;59.940;30.280;2022-08-19T04:14:20;102107.34;;;26.09;50.35
41513;BME280;27244;59.940;30.280;2022-08-19T04:16:48;102100.88;;;26.08;49.94
41513;BME280;27244;59.940;30.280;2022-08-19T04:19:16;102109.34;;;26.08;50.07
41513;BME280;27244;59.940;30.280;2022-08-19T04:21:47;102106.97;;;26.07;49.79
41513;BME280;27244;59.940;30.280;2022-08-19T04:24:15;102111.84;;;26.06;50.19
41513;BME280;27244;59.940;30.280;2022-08-19T04:26:42;102119.09;;;26.07;50.16
41513;BME280;27244;59.940;30.280;2022-08-19T04:29:14;102116.63;;;26.09;50.03
41513;BME280;27244;59.940;30.280;2022-08-19T04:31:43;102117.50;;;26.06;50.25
41513;BME280;27244;59.940;30.280;2022-08-19T04:34:13;102121.91;;;26.07;49.83
41513;BME280;27244;59.940;30.280;2022-08-19T04:36:42;102129.97;;;26.09;50.20
41513;BME280;27244;59.940;30.280;2022-08-19T04:39:13;102119.91;;;26.08;50.31
41513;BME280;27244;59.940;30.280;2022-08-19T04:41:42;102119.50;;;26.06;49.96
41513;BME280;27244;59.940;30.280;2022-08-19T04:44:29;102122.28;;;26.09;49.71
41513;BME280;27244;59.940;30.280;2022-08-19T04:46:57;102122.72;;;26.08;50.09
41513;BME280;27244;59.940;30.280;2022-08-19T04:49:25;102125.97;;;26.06;49.93
41513;BME280;27244;59.940;30.280;2022-08-19T04:51:53;102112.25;;;26.05;50.35
41513;BME280;27244;59.940;30.280;2022-08-19T04:54:21;102112.25;;;26.05;50.06
41513;BME280;27244;59.940;30.280;2022-08-19T04:56:50;102121.53;;;26.05;50.00
41513;BME280;27244;59.940;30.280;2022-08-19T04:59:18;102130.41;;;26.07;50.24
41513;BME280;27244;59.940;30.280;2022-08-19T05:01:48;102128.00;;;26.06;50.30
41513;BME280;27244;59.940;30.280;2022-08-19T05:04:17;102135.66;;;26.05;50.60
41513;BME280;27244;59.940;30.280;2022-08-19T05:06:44;102132.84;;;26.05;50.43
41513;BME280;27244;59.940;30.280;2022-08-19T05:09:13;102127.19;;;26.05;50.47
41513;BME280;27244;59.940;30.280;2022-08-19T05:11:40;102129.59;;;26.07;50.54
41513;BME280;27244;59.940;30.280;2022-08-19T05:14:08;102129.59;;;26.07;50.30
41513;BME280;27244;59.940;30.280;2022-08-19T05:16:35;102130.81;;;26.06;50.69
41513;BME280;27244;59.940;30.280;2022-08-19T05:19:04;102138.88;;;26.07;50.16
41513;BME280;27244;59.940;30.280;2022-08-19T05:21:48;102137.28;;;26.06;50.60
41513;BME280;27244;59.940;30.280;2022-08-19T05:24:32;102137.69;;;26.05;50.46
41513;BME280;27244;59.940;30.280;2022-08-19T05:27:01;102141.38;;;26.02;50.47
41513;BME280;27244;59.940;30.280;2022-08-19T05:29:31;102144.16;;;26.05;50.45
41513;BME280;27244;59.940;30.280;2022-08-19T05:32:00;102145.75;;;26.06;50.22
41513;BME280;27244;59.940;30.280;2022-08-19T05:34:29;102156.66;;;26.08;50.40
41513;BME280;27244;59.940;30.280;2022-08-19T05:36:59;102153.38;;;26.09;49.98
41513;BME280;27244;59.940;30.280;2022-08-19T05:39:30;102151.38;;;26.10;50.13
41513;BME280;27244;59.940;30.280;2022-08-19T05:41:59;102152.22;;;26.07;50.09
41513;BME280;27244;59.940;30.280;2022-08-19T05:44:29;102150.63;;;26.06;50.06
41513;BME280;27244;59.940;30.280;2022-08-19T05:47:01;102149.81;;;26.05;50.42
41513;BME280;27244;59.940;30.280;2022-08-19T05:49:30;102152.59;;;26.09;50.58
41513;BME280;27244;59.940;30.280;2022-08-19T05:51:58;102154.25;;;26.06;50.28
41513;BME280;27244;59.940;30.280;2022-08-19T05:54:28;102147.38;;;26.07;50.72
41513;BME280;27244;59.940;30.280;2022-08-19T05:56:55;102157.88;;;26.07;50.54
41513;BME280;27244;59.940;30.280;2022-08-19T05:59:22;102153.38;;;26.09;50.52
41513;BME280;27244;59.940;30.280;2022-08-19T06:01:51;102146.56;;;26.07;50.74
41513;BME280;27244;59.940;30.280;2022-08-19T06:04:20;102148.94;;;26.08;50.84
41513;BME280;27244;59.940;30.280;2022-08-19T06:07:01;102150.50;;;26.13;50.65
41513;BME280;27244;59.940;30.280;2022-08-19T06:09:29;102146.88;;;26.12;50.52
41513;BME280;27244;59.940;30.280;2022-08-19T06:11:58;102142.81;;;26.13;50.68
41513;BME280;27244;59.940;30.280;2022-08-19T06:14:31;102146.81;;;26.16;50.51
41513;BME280;27244;59.940;30.280;2022-08-19T06:17:00;102149.28;;;26.14;51.16
41513;BME280;27244;59.940;30.280;2022-08-19T06:19:28;102150.91;;;26.15;51.21
41513;BME280;27244;59.940;30.280;2022-08-19T06:21:58;102154.09;;;26.17;51.00
41513;BME280;27244;59.940;30.280;2022-08-19T06:24:27;102146.03;;;26.15;51.18
41513;BME280;27244;59.940;30.280;2022-08-19T06:26:55;102147.63;;;26.16;51.32
41513;BME280;27244;59.940;30.280;2022-08-19T06:29:24;102150.44;;;26.16;51.31
41513;BME280;27244;59.940;30.280;2022-08-19T06:31:57;102154.50;;;26.19;51.24
41513;BME280;27244;59.940;30.280;2022-08-19T06:34:26;102149.66;;;26.16;51.80
41513;BME280;27244;59.940;30.280;2022-08-19T06:36:59;102151.25;;;26.17;51.53
41513;BME280;27244;59.940;30.280;2022-08-19T06:39:28;102154.13;;;26.13;51.91
41513;BME280;27244;59.940;30.280;2022-08-19T06:41:58;102164.66;;;26.13;51.93
41513;BME280;27244;59.940;30.280;2022-08-19T06:44:30;102161.81;;;26.13;51.56
41513;BME280;27244;59.940;30.280;2022-08-19T06:47:03;102156.97;;;26.13;51.85
41513;BME280;27244;59.940;30.280;2022-08-19T06:49:30;102164.22;;;26.14;52.24
41513;BME280;27244;59.940;30.280;2022-08-19T06:52:00;102165.84;;;26.15;52.11
41513;BME280;27244;59.940;30.280;2022-08-19T06:54:27;102161.00;;;26.12;52.33
41513;BME280;27244;59.940;30.280;2022-08-19T06:56:55;102167.06;;;26.14;52.64
41513;BME280;27244;59.940;30.280;2022-08-19T06:59:23;102161.81;;;26.13;52.36
41513;BME280;27244;59.940;30.280;2022-08-19T07:01:54;102171.06;;;26.17;52.38
41513;BME280;27244;59.940;30.280;2022-08-19T07:04:24;102166.63;;;26.16;52.85
41513;BME280;27244;59.940;30.280;2022-08-19T07:06:57;102162.53;;;26.20;52.37
41513;BME280;27244;59.940;30.280;2022-08-19T07:09:27;102163.38;;;26.17;52.81
41513;BME280;27244;59.940;30.280;2022-08-19T07:11:55;102155.81;;;26.11;52.77
41513;BME280;27244;59.940;30.280;2022-08-19T07:14:26;102162.94;;;26.22;52.60
41513;BME280;27244;59.940;30.280;2022-08-19T07:16:55;102159.34;;;26.18;52.92
41513;BME280;27244;59.940;30.280;2022-08-19T07:19:25;102162.47;;;26.24;52.72
41513;BME280;27244;59.940;30.280;2022-08-19T07:21:53;102156.53;;;26.18;52.85
41513;BME280;27244;59.940;30.280;2022-08-19T07:24:22;102161.72;;;26.20;53.10
41513;BME280;27244;59.940;30.280;2022-08-19T07:26:52;102166.13;;;26.24;53.03
41513;BME280;27244;59.940;30.280;2022-08-19T07:29:21;102162.53;;;26.20;52.97
41513;BME280;27244;59.940;30.280;2022-08-19T07:31:49;102169.81;;;26.21;52.77
41513;BME280;27244;59.940;30.280;2022-08-19T07:34:18;102172.19;;;26.23;52.79
41513;BME280;27244;59.940;30.280;2022-08-19T07:36:46;102173.78;;;26.24;52.88
41513;BME280;27244;59.940;30.280;2022-08-19T07:39:14;102179.44;;;26.24;52.87
41513;BME280;27244;59.940;30.280;2022-08-19T07:41:42;102177.84;;;26.23;53.02
41513;BME280;27244;59.940;30.280;2022-08-19T07:44:11;102181.88;;;26.25;52.74
41513;BME280;27244;59.940;30.280;2022-08-19T07:46:40;102176.22;;;26.25;52.71
41513;BME280;27244;59.940;30.280;2022-08-19T07:49:09;102177.00;;;26.26;52.64
41513;BME280;27244;59.940;30.280;2022-08-19T07:51:45;102181.41;;;26.27;52.72
41513;BME280;27244;59.940;30.280;2022-08-19T07:54:12;102178.25;;;26.25;52.95
41513;BME280;27244;59.940;30.280;2022-08-19T07:56:39;102180.63;;;26.26;52.62
41513;BME280;27244;59.940;30.280;2022-08-19T07:59:07;102188.34;;;26.26;52.54
41513;BME280;27244;59.940;30.280;2022-08-19T08:01:36;102187.47;;;26.29;52.64
41513;BME280;27244;59.940;30.280;2022-08-19T08:04:06;102182.28;;;26.24;52.03
41513;BME280;27244;59.940;30.280;2022-08-19T08:06:50;102185.50;;;26.26;51.66
41513;BME280;27244;59.940;30.280;2022-08-19T08:09:38;102181.88;;;26.25;51.61
41513;BME280;27244;59.940;30.280;2022-08-19T08:12:07;102177.00;;;26.26;51.73
41513;BME280;27244;59.940;30.280;2022-08-19T08:14:38;102178.59;;;26.27;51.75
41513;BME280;27244;59.940;30.280;2022-08-19T08:17:08;102180.63;;;26.26;51.98
41513;BME280;27244;59.940;30.280;2022-08-19T08:19:35;102178.25;;;26.25;51.71
41513;BME280;27244;59.940;30.280;2022-08-19T08:22:03;102179.03;;;26.25;51.97
41513;BME280;27244;59.940;30.280;2022-08-19T08:24:32;102181.88;;;26.25;51.72
41513;BME280;27244;59.940;30.280;2022-08-19T08:27:01;102179.44;;;26.24;52.04
41513;BME280;27244;59.940;30.280;2022-08-19T08:29:30;102186.28;;;26.26;52.02
41513;BME280;27244;59.940;30.280;2022-08-19T08:31:58;102179.41;;;26.27;52.08
41513;BME280;27244;59.940;30.280;2022-08-19T08:34:27;102183.03;;;26.28;52.29
41513;BME280;27244;59.940;30.280;2022-08-19T08:36:54;102173.75;;;26.27;52.07
41513;BME280;27244;59.940;30.280;2022-08-19T08:39:24;102178.19;;;26.28;52.14
41513;BME280;27244;59.940;30.280;2022-08-19T08:41:55;102181.81;;;26.29;52.04
41513;BME280;27244;59.940;30.280;2022-08-19T08:44:31;102189.78;;;26.34;52.08
41513;BME280;27244;59.940;30.280;2022-08-19T08:47:11;102195.03;;;26.35;52.10
41513;BME280;27244;59.940;30.280;2022-08-19T08:49:45;102191.41;;;26.35;52.24
41513;BME280;27244;59.940;30.280;2022-08-19T08:52:19;102195.47;;;26.34;52.25
41513;BME280;27244;59.940;30.280;2022-08-19T08:54:50;102189.84;;;26.30;51.83
41513;BME280;27244;59.940;30.280;2022-08-19T08:57:23;102197.50;;;26.33;51.90
41513;BME280;27244;59.940;30.280;2022-08-19T08:59:53;102197.94;;;26.32;51.99
41513;BME280;27244;59.940;30.280;2022-08-19T09:02:21;102197.97;;;26.28;51.85
41513;BME280;27244;59.940;30.280;2022-08-19T09:04:49;102201.97;;;26.31;51.99
41513;BME280;27244;59.940;30.280;2022-08-19T09:07:25;102194.69;;;26.33;52.13
41513;BME280;27244;59.940;30.280;2022-08-19T09:10:04;102207.16;;;26.36;51.87
41513;BME280;27244;59.940;30.280;2022-08-19T09:12:39;102200.75;;;26.32;52.13
41513;BME280;27244;59.940;30.280;2022-08-19T09:15:11;102211.25;;;26.31;52.30
41513;BME280;27244;59.940;30.280;2022-08-19T09:17:39;102207.63;;;26.31;51.29
41513;BME280;27244;59.940;30.280;2022-08-19T09:20:15;102201.88;;;26.38;51.69
41513;BME280;27244;59.940;30.280;2022-08-19T09:22:45;102199.94;;;26.31;51.56
41513;BME280;27244;59.940;30.280;2022-08-19T09:25:14;102200.34;;;26.33;51.84
41513;BME280;27244;59.940;30.280;2022-08-19T09:27:43;102200.75;;;26.32;51.53
41513;BME280;27244;59.940;30.280;2022-08-19T09:30:14;102202.31;;;26.36;51.32
41513;BME280;27244;59.940;30.280;2022-08-19T09:32:42;102211.66;;;26.33;51.34
41513;BME280;27244;59.940;30.280;2022-08-19T09:35:11;102201.06;;;26.37;51.52
41513;BME280;27244;59.940;30.280;2022-08-19T09:37:39;102200.69;;;26.35;51.36
41513;BME280;27244;59.940;30.280;2022-08-19T09:40:07;102199.09;;;26.34;51.26
41513;BME280;27244;59.940;30.280;2022-08-19T09:42:34;102194.69;;;26.33;51.33
41513;BME280;27244;59.940;30.280;2022-08-19T09:45:03;102198.28;;;26.34;51.30
41513;BME280;27244;59.940;30.280;2022-08-19T09:47:30;102197.06;;;26.35;51.32
41513;BME280;27244;59.940;30.280;2022-08-19T09:49:58;102197.06;;;26.35;51.30
41513;BME280;27244;59.940;30.280;2022-08-19T09:52:27;102191.00;;;26.36;51.24
41513;BME280;27244;59.940;30.280;2022-08-19T09:54:54;102196.25;;;26.34;50.79
41513;BME280;27244;59.940;30.280;2022-08-19T09:57:21;102189.38;;;26.35;50.56
41513;BME280;27244;59.940;30.280;2022-08-19T09:59:48;102193.00;;;26.36;51.33
41513;BME280;27244;59.940;30.280;2022-08-19T10:02:15;102197.06;;;26.35;51.35
41513;BME280;27244;59.940;30.280;2022-08-19T10:04:42;102200.69;;;26.35;51.36
41513;BME280;27244;59.940;30.280;2022-08-19T10:07:29;102197.81;;;26.39;50.89
41513;BME280;27244;59.940;30.280;2022-08-19T10:09:56;102197.06;;;26.35;50.20
41513;BME280;27244;59.940;30.280;2022-08-19T10:12:23;102195.03;;;26.35;49.80
41513;BME280;27244;59.940;30.280;2022-08-19T10:14:50;102188.22;;;26.33;49.70
41513;BME280;27244;59.940;30.280;2022-08-19T10:17:19;102189.44;;;26.32;49.88
41513;BME280;27244;59.940;30.280;2022-08-19T10:19:47;102193.88;;;26.33;49.61
41513;BME280;27244;59.940;30.280;2022-08-19T10:22:17;102193.44;;;26.34;49.57
41513;BME280;27244;59.940;30.280;2022-08-19T10:24:47;102184.94;;;26.34;49.31
41513;BME280;27244;59.940;30.280;2022-08-19T10:27:15;102196.72;;;26.33;48.73
41513;BME280;27244;59.940;30.280;2022-08-19T10:29:42;102193.50;;;26.31;49.25
41513;BME280;27244;59.940;30.280;2022-08-19T10:32:09;102188.22;;;26.33;49.69
41513;BME280;27244;59.940;30.280;2022-08-19T10:34:37;102197.13;;;26.31;50.54
41513;BME280;27244;59.940;30.280;2022-08-19T10:37:05;102192.25;;;26.32;50.19
41513;BME280;27244;59.940;30.280;2022-08-19T10:39:33;102189.44;;;26.32;49.57
41513;BME280;27244;59.940;30.280;2022-08-19T10:42:05;102190.53;;;26.38;50.35
41513;BME280;27244;59.940;30.280;2022-08-19T10:44:33;102189.78;;;26.34;50.69
41513;BME280;27244;59.940;30.280;2022-08-19T10:47:02;102187.78;;;26.34;50.66
41513;BME280;27244;59.940;30.280;2022-08-19T10:49:30;102180.56;;;26.30;51.15
41513;BME280;27244;59.940;30.280;2022-08-19T10:51:57;102187.34;;;26.36;50.84
41513;BME280;27244;59.940;30.280;2022-08-19T10:54:42;102180.09;;;26.35;51.17
41513;BME280;27244;59.940;30.280;2022-08-19T10:57:31;102178.38;;;26.41;50.90
41513;BME280;27244;59.940;30.280;2022-08-19T10:59:58;102179.22;;;26.38;51.37
41513;BME280;27244;59.940;30.280;2022-08-19T11:02:25;102176.78;;;26.40;50.94
41513;BME280;27244;59.940;30.280;2022-08-19T11:04:52;102181.19;;;26.41;50.96
41513;BME280;27244;59.940;30.280;2022-08-19T11:07:19;102185.63;;;26.42;50.83
41513;BME280;27244;59.940;30.280;2022-08-19T11:09:46;102178.75;;;26.43;51.17
41513;BME280;27244;59.940;30.280;2022-08-19T11:12:13;102175.13;;;26.42;51.23
41513;BME280;27244;59.940;30.280;2022-08-19T11:14:42;102180.34;;;26.44;50.44
41513;BME280;27244;59.940;30.280;2022-08-19T11:17:09;102181.56;;;26.43;49.81
41513;BME280;27244;59.940;30.280;2022-08-19T11:19:39;102182.81;;;26.42;49.51
41513;BME280;27244;59.940;30.280;2022-08-19T11:22:08;102177.59;;;26.40;49.43
41513;BME280;27244;59.940;30.280;2022-08-19T11:24:36;102179.97;;;26.42;48.57
41513;BME280;27244;59.940;30.280;2022-08-19T11:27:05;102176.78;;;26.40;49.36
41513;BME280;27244;59.940;30.280;2022-08-19T11:29:35;102182.44;;;26.40;48.83
41513;BME280;27244;59.940;30.280;2022-08-19T11:32:06;102170.25;;;26.43;48.70
41513;BME280;27244;59.940;30.280;2022-08-19T11:34:35;102169.09;;;26.40;48.48
41513;BME280;27244;59.940;30.280;2022-08-19T11:37:03;102171.13;;;26.40;48.73
41513;BME280;27244;59.940;30.280;2022-08-19T11:39:32;102178.81;;;26.39;49.07
41513;BME280;27244;59.940;30.280;2022-08-19T11:42:00;102173.50;;;26.41;48.73
41513;BME280;27244;59.940;30.280;2022-08-19T11:44:28;102167.03;;;26.41;48.47
41513;BME280;27244;59.940;30.280;2022-08-19T11:46:56;102173.09;;;26.43;48.72
41513;BME280;27244;59.940;30.280;2022-08-19T11:49:27;102171.13;;;26.40;48.75
41513;BME280;27244;59.940;30.280;2022-08-19T11:51:55;102179.56;;;26.43;48.29
41513;BME280;27244;59.940;30.280;2022-08-19T11:54:23;102169.16;;;26.37;48.36
41513;BME280;27244;59.940;30.280;2022-08-19T11:56:50;102173.50;;;26.41;47.91
41513;BME280;27244;59.940;30.280;2022-08-19T11:59:17;102164.22;;;26.41;48.08
41513;BME280;27244;59.940;30.280;2022-08-19T12:01:44;102166.34;;;26.37;47.80
41513;BME280;27244;59.940;30.280;2022-08-19T12:04:11;102166.34;;;26.37;48.38
41513;BME280;27244;59.940;30.280;2022-08-19T12:06:41;102166.28;;;26.40;48.64
41513;BME280;27244;59.940;30.280;2022-08-19T12:09:08;102173.97;;;26.40;48.62
41513;BME280;27244;59.940;30.280;2022-08-19T12:11:37;102171.53;;;26.38;48.49
41513;BME280;27244;59.940;30.280;2022-08-19T12:14:05;102177.59;;;26.40;48.51
41513;BME280;27244;59.940;30.280;2022-08-19T12:16:32;102175.53;;;26.41;48.08
41513;BME280;27244;59.940;30.280;2022-08-19T12:18:59;102174.31;;;26.42;48.20
41513;BME280;27244;59.940;30.280;2022-08-19T12:21:30;102174.31;;;26.42;47.91
41513;BME280;27244;59.940;30.280;2022-08-19T12:24:00;102179.97;;;26.42;47.97
41513;BME280;27244;59.940;30.280;2022-08-19T12:26:31;102172.34;;;26.39;47.79
41513;BME280;27244;59.940;30.280;2022-08-19T12:28:58;102172.69;;;26.41;47.19
41513;BME280;27244;59.940;30.280;2022-08-19T12:31:26;102169.88;;;26.41;47.55
41513;BME280;27244;59.940;30.280;2022-08-19T12:33:54;102166.28;;;26.40;47.80
41513;BME280;27244;59.940;30.280;2022-08-19T12:36:21;102165.47;;;26.40;47.70
41513;BME280;27244;59.940;30.280;2022-08-19T12:38:48;102165.47;;;26.40;47.54
41513;BME280;27244;59.940;30.280;2022-08-19T12:41:18;102157.34;;;26.42;47.16
41513;BME280;27244;59.940;30.280;2022-08-19T12:43:47;102160.97;;;26.42;47.37
41513;BME280;27244;59.940;30.280;2022-08-19T12:46:14;102152.47;;;26.42;47.53
41513;BME280;27244;59.940;30.280;2022-08-19T12:48:41;102156.91;;;26.43;47.35
41513;BME280;27244;59.940;30.280;2022-08-19T12:51:13;102155.66;;;26.44;47.72